메인 페이지
METAR-TAF:

METAR-TAF

공항 :

카이로 국제공항

카이로, 이집트

위도: 30-08N, 경도: 031-24E, 고도: 64m

현재 날씨관측

예보는 33분 전, 11:30시(UTC)에 발표되었습니다.
북서5kt
온도 30°C
습도 40%
기압 1013 hPa
시정 10km 이상
1500m 미만 상공 구름 및 적란운 없음

METAR: HECA 201130Z 32005KT CAVOK 30/15 Q1013 NOSIG

시각: 14:03 (12:03 UTC)

예보

예보는 1 시간 3분 전, 11:00시(UTC)에 발표되었습니다.
예보 대상 시간: 20일 12시부터 21일 18시까지 (UTC)
8kt
시정 10km 이상
1500m 미만 상공 구름 및 적란운 없음

TAF: HECA 201100Z 2012/2118 01008KT CAVOK

4,000개 이상의 공항 관측 자료 및 예보 (METAR 및 TAF 보고).

지도상에서 검색 가능한 기상관측소가 노란 점과 빨간 점으로 표시되어 있습니다.

기상관측소 명을 보려면 표시 위로 마우스를 이동하세요.

날씨 관측과 예보를 보려면 클릭하세요.

지도 변경 : 확대하려면 엑스 표시가 있는 녹색 버튼, 축소하려면 빼기 표시가 있는 녹색 버튼, 다음 페이지의 지도를 보려면 녹색 화살표를 클릭하세요.


METAR-TAF: